createdAt,value
2022-09-23T00:01:16.798Z,8.50
2022-09-23T00:03:46.597Z,8.40
2022-09-23T00:06:16.270Z,8.40
2022-09-23T00:08:43.971Z,8.40
2022-09-23T00:11:16.905Z,8.40
2022-09-23T00:13:46.242Z,8.40
2022-09-23T00:16:16.203Z,8.40
2022-09-23T00:18:43.913Z,8.40
2022-09-23T00:21:13.542Z,8.40
2022-09-23T00:23:42.799Z,8.50
2022-09-23T00:26:15.831Z,8.50
2022-09-23T00:28:42.952Z,8.40
2022-09-23T00:31:13.685Z,8.40
2022-09-23T00:33:40.811Z,8.30
2022-09-23T00:36:11.106Z,8.40
2022-09-23T00:38:38.744Z,8.40
2022-09-23T00:41:06.458Z,8.40
2022-09-23T00:43:50.524Z,8.40
2022-09-23T00:46:43.668Z,8.40
2022-09-23T00:49:20.407Z,8.30
2022-09-23T00:51:54.479Z,8.30
2022-09-23T00:54:24.084Z,8.30
2022-09-23T00:56:51.366Z,8.30
2022-09-23T00:59:19.493Z,8.30
2022-09-23T01:01:48.513Z,8.20
2022-09-23T01:04:15.881Z,8.40
2022-09-23T01:06:42.604Z,8.40
2022-09-23T01:09:09.403Z,8.40
2022-09-23T01:11:57.600Z,8.40
2022-09-23T01:14:44.560Z,8.30
2022-09-23T01:17:19.940Z,8.40
2022-09-23T01:19:52.574Z,8.30
2022-09-23T01:22:42.090Z,8.30
2022-09-23T01:25:40.830Z,8.40
2022-09-23T01:28:26.088Z,8.50
2022-09-23T01:31:19.350Z,8.40
2022-09-23T01:33:53.192Z,8.30
2022-09-23T01:37:02.378Z,8.30
2022-09-23T01:39:40.201Z,8.30
2022-09-23T01:42:17.321Z,8.30
2022-09-23T01:44:51.328Z,8.40
2022-09-23T01:47:26.532Z,8.30
2022-09-23T01:49:59.166Z,8.40
2022-09-23T01:52:28.591Z,8.30
2022-09-23T01:55:19.040Z,8.30
2022-09-23T01:58:24.534Z,8.20
2022-09-23T02:01:15.147Z,8.30
2022-09-23T02:03:59.328Z,8.30
2022-09-23T02:06:50.754Z,8.20
2022-09-23T02:09:24.921Z,8.10
2022-09-23T02:11:54.505Z,8.10
2022-09-23T02:14:33.302Z,8.20
2022-09-23T02:17:08.918Z,8.10
2022-09-23T02:19:52.966Z,8.00
2022-09-23T02:23:01.912Z,8.00
2022-09-23T02:25:44.618Z,8.00
2022-09-23T02:28:25.559Z,8.10
2022-09-23T02:31:04.509Z,8.10
2022-09-23T02:33:46.750Z,8.00
2022-09-23T02:36:25.830Z,8.00
2022-09-23T02:38:57.676Z,8.00
2022-09-23T02:41:34.189Z,7.90
2022-09-23T02:44:07.165Z,7.90
2022-09-23T02:46:35.000Z,7.80
2022-09-23T02:49:26.286Z,7.80
2022-09-23T02:51:54.641Z,7.80
2022-09-23T02:54:30.757Z,7.80
2022-09-23T02:57:01.232Z,7.80
2022-09-23T02:59:28.953Z,7.80
2022-09-23T03:02:20.718Z,7.80
2022-09-23T03:05:04.066Z,7.80
2022-09-23T03:07:39.127Z,7.70
2022-09-23T03:10:43.942Z,7.80
2022-09-23T03:13:29.336Z,7.70
2022-09-23T03:16:38.380Z,7.70
2022-09-23T03:19:48.800Z,7.80
2022-09-23T03:22:23.685Z,7.70
2022-09-23T03:24:54.182Z,7.60
2022-09-23T03:27:25.852Z,7.60
2022-09-23T03:29:54.245Z,7.60
2022-09-23T03:32:24.730Z,7.70
2022-09-23T03:34:54.021Z,7.70
2022-09-23T03:37:27.072Z,7.80
2022-09-23T03:39:59.832Z,7.70
2022-09-23T03:42:30.113Z,7.70
2022-09-23T03:44:57.618Z,7.70
2022-09-23T03:47:27.439Z,7.60
2022-09-23T03:49:54.727Z,7.50
2022-09-23T03:52:23.819Z,7.50
2022-09-23T03:54:52.125Z,7.50
2022-09-23T03:57:22.057Z,7.50
2022-09-23T03:59:50.555Z,7.50
2022-09-23T04:02:18.736Z,7.60
2022-09-23T04:04:45.809Z,7.50
2022-09-23T04:07:13.017Z,7.50
2022-09-23T04:09:40.372Z,7.50
2022-09-23T04:12:07.484Z,7.50
2022-09-23T04:14:34.284Z,7.40
2022-09-23T04:17:01.032Z,7.40
2022-09-23T04:19:27.849Z,7.50
2022-09-23T04:21:54.601Z,7.40
2022-09-23T04:24:22.155Z,7.40
2022-09-23T04:26:53.633Z,7.40
2022-09-23T04:29:21.608Z,7.30
2022-09-23T04:31:48.737Z,7.30
2022-09-23T04:34:19.259Z,7.30
2022-09-23T04:36:47.184Z,7.30
2022-09-23T04:39:15.506Z,7.30
2022-09-23T04:41:43.584Z,7.20
2022-09-23T04:44:12.472Z,7.30
2022-09-23T04:46:41.097Z,7.30
2022-09-23T04:49:08.462Z,7.20
2022-09-23T04:51:35.758Z,7.20
2022-09-23T04:54:02.514Z,7.20
2022-09-23T04:56:33.304Z,7.20
2022-09-23T04:59:01.793Z,7.20
2022-09-23T05:01:30.930Z,7.10
2022-09-23T05:04:02.424Z,7.20
2022-09-23T05:06:31.433Z,7.10
2022-09-23T05:08:59.311Z,7.20
2022-09-23T05:11:26.685Z,7.20
2022-09-23T05:13:54.788Z,7.20
2022-09-23T05:16:25.724Z,7.10
2022-09-23T05:18:53.920Z,7.20
2022-09-23T05:21:23.392Z,7.20
2022-09-23T05:23:54.187Z,7.20
2022-09-23T05:26:23.079Z,7.20
2022-09-23T05:28:49.793Z,7.10
2022-09-23T05:31:20.645Z,7.00
2022-09-23T05:33:51.773Z,7.00
2022-09-23T05:36:19.957Z,7.00
2022-09-23T05:38:48.614Z,7.00
2022-09-23T05:41:16.285Z,7.00
2022-09-23T05:43:43.755Z,7.00
2022-09-23T05:46:12.881Z,7.10
2022-09-23T05:48:40.666Z,7.20
2022-09-23T05:51:11.129Z,7.20
2022-09-23T05:53:38.152Z,7.10
2022-09-23T05:56:05.732Z,7.20
2022-09-23T05:58:32.962Z,7.20
2022-09-23T06:00:59.765Z,7.30
2022-09-23T06:03:26.695Z,7.40
2022-09-23T06:05:55.315Z,7.40
2022-09-23T06:08:23.082Z,7.50
2022-09-23T06:10:54.360Z,7.50
2022-09-23T06:13:21.787Z,7.60
2022-09-23T06:15:48.655Z,7.70
2022-09-23T06:18:15.364Z,7.70
2022-09-23T06:20:42.128Z,7.80
2022-09-23T06:23:11.164Z,7.90
2022-09-23T06:25:38.586Z,7.90
2022-09-23T06:28:06.918Z,8.00
2022-09-23T06:30:34.811Z,8.00
2022-09-23T06:33:01.924Z,8.10
2022-09-23T06:35:28.992Z,8.10
2022-09-23T06:37:55.896Z,8.20
2022-09-23T06:40:23.006Z,8.20
2022-09-23T06:43:01.248Z,8.40
2022-09-23T06:45:28.839Z,8.40
2022-09-23T06:47:57.793Z,8.50
2022-09-23T06:50:27.014Z,8.60
2022-09-23T06:52:58.410Z,8.70
2022-09-23T06:55:27.195Z,8.80
2022-09-23T06:57:54.980Z,9.00
2022-09-23T07:00:21.775Z,9.00
2022-09-23T07:02:48.978Z,9.10
2022-09-23T07:05:17.358Z,9.20
2022-09-23T07:07:45.005Z,9.30
2022-09-23T07:10:12.356Z,9.40
2022-09-23T07:12:39.410Z,9.60
2022-09-23T07:15:06.884Z,9.60
2022-09-23T07:17:34.991Z,9.70
2022-09-23T07:20:02.253Z,9.90
2022-09-23T07:22:29.276Z,10.10
2022-09-23T07:24:56.324Z,10.20
2022-09-23T07:27:27.388Z,10.30
2022-09-23T07:29:55.025Z,10.60
2022-09-23T07:32:22.918Z,10.70
2022-09-23T07:34:49.836Z,10.80
2022-09-23T07:37:17.676Z,11.00
2022-09-23T07:39:45.452Z,11.20
2022-09-23T07:42:13.286Z,11.30
2022-09-23T07:44:43.257Z,11.40
2022-09-23T07:47:10.033Z,11.40
2022-09-23T07:49:37.054Z,11.70
2022-09-23T07:52:04.904Z,12.00
2022-09-23T07:54:32.826Z,12.20
2022-09-23T07:56:59.993Z,12.50
2022-09-23T07:59:27.295Z,12.50
2022-09-23T08:01:55.524Z,12.70
2022-09-23T08:04:27.730Z,13.00
2022-09-23T08:06:57.814Z,13.10
2022-09-23T08:09:28.196Z,13.10
2022-09-23T08:11:55.378Z,13.30
2022-09-23T08:14:22.462Z,13.40
2022-09-23T08:16:49.907Z,13.50
2022-09-23T08:19:17.035Z,13.60
2022-09-23T08:21:47.443Z,13.70
2022-09-23T08:24:17.350Z,13.90
2022-09-23T08:26:45.448Z,14.00
2022-09-23T08:29:14.178Z,14.10
2022-09-23T08:31:41.076Z,14.20
2022-09-23T08:34:08.690Z,14.30
2022-09-23T08:36:36.258Z,14.50
2022-09-23T08:39:03.621Z,14.60
2022-09-23T08:41:33.353Z,14.90
2022-09-23T08:44:07.043Z,14.80
2022-09-23T08:46:42.289Z,14.90
2022-09-23T08:49:14.420Z,14.80
2022-09-23T08:51:46.891Z,14.80
2022-09-23T08:54:16.460Z,14.80
2022-09-23T08:56:47.224Z,14.80
2022-09-23T08:59:41.810Z,14.80
2022-09-23T09:02:19.420Z,14.80
2022-09-23T09:04:51.022Z,14.80
2022-09-23T09:07:38.797Z,14.80
2022-09-23T09:10:28.520Z,14.70
2022-09-23T09:13:07.410Z,14.80
2022-09-23T09:15:44.043Z,14.90
2022-09-23T09:18:21.430Z,14.90
2022-09-23T09:21:10.712Z,14.70
2022-09-23T09:23:47.924Z,14.90
2022-09-23T09:26:23.179Z,14.90
2022-09-23T09:29:34.455Z,14.90
2022-09-23T09:32:25.469Z,15.00
2022-09-23T09:34:59.941Z,15.20
2022-09-23T09:37:35.835Z,15.00
2022-09-23T09:40:03.757Z,15.10
2022-09-23T09:42:41.544Z,15.10
2022-09-23T09:45:14.226Z,15.20
2022-09-23T09:48:03.452Z,15.40
2022-09-23T09:50:52.230Z,15.50
2022-09-23T09:53:23.902Z,15.50
2022-09-23T09:56:12.688Z,15.80
2022-09-23T09:58:49.055Z,15.90
2022-09-23T10:01:29.972Z,16.00
2022-09-23T10:03:59.467Z,16.00
2022-09-23T10:06:34.874Z,16.00
2022-09-23T10:09:04.777Z,16.10
2022-09-23T10:11:32.992Z,16.20
2022-09-23T10:14:05.706Z,16.50
2022-09-23T10:16:34.798Z,16.70
2022-09-23T10:19:14.295Z,16.90
2022-09-23T10:21:42.298Z,17.30
2022-09-23T10:24:18.951Z,17.60
2022-09-23T10:26:55.837Z,17.80
2022-09-23T10:29:28.706Z,17.50
2022-09-23T10:32:30.975Z,17.60
2022-09-23T10:35:04.686Z,17.50
2022-09-23T10:37:37.587Z,17.30
2022-09-23T10:40:32.286Z,17.30
2022-09-23T10:43:32.905Z,17.50
2022-09-23T10:46:22.503Z,17.70
2022-09-23T10:49:23.832Z,17.90
2022-09-23T10:52:09.355Z,17.90
2022-09-23T10:54:51.395Z,17.90
2022-09-23T10:57:41.754Z,18.20
2022-09-23T11:00:28.473Z,18.40
2022-09-23T11:03:32.200Z,18.40
2022-09-23T11:06:05.744Z,18.30
2022-09-23T11:09:24.879Z,18.30
2022-09-23T11:12:07.376Z,18.40
2022-09-23T11:14:34.175Z,18.70
2022-09-23T11:17:31.802Z,18.70
2022-09-23T11:20:21.824Z,19.00
2022-09-23T11:23:09.576Z,19.50
2022-09-23T11:26:01.214Z,19.70
2022-09-23T11:28:40.177Z,19.80
2022-09-23T11:31:10.224Z,19.80
2022-09-23T11:33:58.606Z,20.00
2022-09-23T11:36:36.296Z,20.50
2022-09-23T11:39:16.805Z,20.60
2022-09-23T11:41:44.914Z,20.50
2022-09-23T11:44:28.418Z,20.40
2022-09-23T11:47:04.701Z,19.50
2022-09-23T11:49:36.756Z,19.10
2022-09-23T11:52:14.410Z,19.50
2022-09-23T11:54:49.593Z,19.70
2022-09-23T11:57:49.380Z,19.60
2022-09-23T12:00:22.576Z,19.70
2022-09-23T12:03:11.811Z,19.90
2022-09-23T12:05:44.800Z,20.30
2022-09-23T12:08:37.859Z,20.30
2022-09-23T12:11:06.498Z,20.20
2022-09-23T12:13:59.125Z,20.00
2022-09-23T12:16:44.716Z,20.00
2022-09-23T12:19:51.730Z,19.70
2022-09-23T12:22:57.456Z,19.70
2022-09-23T12:25:48.328Z,19.90
2022-09-23T12:28:15.025Z,19.80
2022-09-23T12:30:42.767Z,19.60
2022-09-23T12:33:27.687Z,19.60
2022-09-23T12:36:06.710Z,19.50
2022-09-23T12:38:38.026Z,19.70
2022-09-23T12:41:34.504Z,19.80
2022-09-23T12:44:15.617Z,19.90
2022-09-23T12:46:46.745Z,19.80
2022-09-23T12:49:36.849Z,19.50
2022-09-23T12:52:17.265Z,19.40
2022-09-23T12:54:49.224Z,19.20
2022-09-23T12:57:33.943Z,19.30
2022-09-23T13:00:12.094Z,19.30
2022-09-23T13:03:18.221Z,19.40
2022-09-23T13:06:18.922Z,19.30
2022-09-23T13:08:47.373Z,19.50
2022-09-23T13:11:28.628Z,19.60
2022-09-23T13:13:59.948Z,19.70
2022-09-23T13:16:41.606Z,19.60
2022-09-23T13:19:26.782Z,19.40
2022-09-23T13:21:53.487Z,19.40
2022-09-23T13:24:23.278Z,19.30
2022-09-23T13:26:57.278Z,19.20
2022-09-23T13:29:46.431Z,19.10
2022-09-23T13:32:17.706Z,18.90
2022-09-23T13:34:48.060Z,19.10
2022-09-23T13:37:22.781Z,19.30
2022-09-23T13:39:50.564Z,19.40
2022-09-23T13:42:28.506Z,19.60
2022-09-23T13:44:57.553Z,19.60
2022-09-23T13:47:26.800Z,19.50
2022-09-23T13:49:53.884Z,19.40
2022-09-23T13:52:27.950Z,19.40
2022-09-23T13:54:54.757Z,19.40
2022-09-23T13:57:33.871Z,19.20
2022-09-23T14:00:21.378Z,19.10
2022-09-23T14:02:48.206Z,18.90
2022-09-23T14:05:24.039Z,18.90
2022-09-23T14:07:56.127Z,18.90
2022-09-23T14:10:24.816Z,18.80
2022-09-23T14:12:52.741Z,18.80
2022-09-23T14:15:21.455Z,18.70
2022-09-23T14:17:53.594Z,18.70
2022-09-23T14:20:22.134Z,18.70
2022-09-23T14:23:02.436Z,18.70
2022-09-23T14:25:29.327Z,18.60
2022-09-23T14:27:59.842Z,18.60
2022-09-23T14:30:27.461Z,18.70
2022-09-23T14:32:54.345Z,18.70
2022-09-23T14:35:27.021Z,18.70
2022-09-23T14:38:16.129Z,18.60
2022-09-23T14:40:53.795Z,18.60
2022-09-23T14:43:26.955Z,18.50
2022-09-23T14:45:56.975Z,18.60
2022-09-23T14:48:28.601Z,18.60
2022-09-23T14:50:57.005Z,18.60
2022-09-23T14:53:50.042Z,18.60
2022-09-23T14:56:20.355Z,18.50
2022-09-23T14:58:52.674Z,18.60
2022-09-23T15:01:32.276Z,18.60
2022-09-23T15:04:14.133Z,18.60
2022-09-23T15:06:47.513Z,18.60
2022-09-23T15:09:23.761Z,18.60
2022-09-23T15:11:58.045Z,18.40
2022-09-23T15:14:38.224Z,18.30
2022-09-23T15:17:13.614Z,18.20
2022-09-23T15:19:40.642Z,18.00
2022-09-23T15:22:10.020Z,17.90
2022-09-23T15:24:43.187Z,17.90
2022-09-23T15:27:30.776Z,18.00
2022-09-23T15:30:15.574Z,18.10
2022-09-23T15:32:43.759Z,18.00
2022-09-23T15:35:15.731Z,18.00
2022-09-23T15:37:44.528Z,18.20
2022-09-23T15:40:23.874Z,18.20
2022-09-23T15:42:56.694Z,18.10
2022-09-23T15:45:36.496Z,18.20
2022-09-23T15:48:11.548Z,18.10
2022-09-23T15:50:40.442Z,18.20
2022-09-23T15:53:08.447Z,18.10
2022-09-23T15:55:35.182Z,18.10
2022-09-23T15:58:02.054Z,18.00
2022-09-23T16:00:28.941Z,17.90
2022-09-23T16:02:55.761Z,17.80
2022-09-23T16:05:30.704Z,17.60
2022-09-23T16:07:57.469Z,17.60
2022-09-23T16:10:24.196Z,17.50
2022-09-23T16:12:53.910Z,17.40
2022-09-23T16:15:23.190Z,17.40
2022-09-23T16:17:50.498Z,17.30
2022-09-23T16:20:17.936Z,17.30
2022-09-23T16:23:12.359Z,17.30
2022-09-23T16:25:39.134Z,17.30
2022-09-23T16:28:05.945Z,17.30
2022-09-23T16:30:34.129Z,17.20
2022-09-23T16:33:01.880Z,17.20
2022-09-23T16:35:31.278Z,17.20
2022-09-23T16:37:58.091Z,17.10
2022-09-23T16:40:25.417Z,17.00
2022-09-23T16:42:54.416Z,17.00
2022-09-23T16:45:23.284Z,17.00
2022-09-23T16:47:52.180Z,16.90
2022-09-23T16:50:22.724Z,16.90
2022-09-23T16:52:57.567Z,16.80
2022-09-23T16:55:27.323Z,16.60
2022-09-23T16:57:54.617Z,16.60
2022-09-23T17:00:40.256Z,16.50
2022-09-23T17:03:25.539Z,16.50
2022-09-23T17:05:54.477Z,16.50
2022-09-23T17:08:21.194Z,16.50
2022-09-23T17:10:57.121Z,16.40
2022-09-23T17:13:25.477Z,16.40
2022-09-23T17:15:53.370Z,16.30
2022-09-23T17:18:20.840Z,16.30
2022-09-23T17:20:57.884Z,16.30
2022-09-23T17:23:27.296Z,16.20
2022-09-23T17:25:54.577Z,16.00
2022-09-23T17:28:22.077Z,15.90
2022-09-23T17:31:01.087Z,15.80
2022-09-23T17:33:30.050Z,15.60
2022-09-23T17:35:57.433Z,15.60
2022-09-23T17:38:28.888Z,15.50
2022-09-23T17:41:00.392Z,15.60
2022-09-23T17:43:28.422Z,15.60
2022-09-23T17:45:58.027Z,15.50
2022-09-23T17:48:26.291Z,15.40
2022-09-23T17:50:57.944Z,15.50
2022-09-23T17:53:26.121Z,15.40
2022-09-23T17:56:04.345Z,15.30
2022-09-23T17:58:33.638Z,15.20
2022-09-23T18:01:01.638Z,15.20
2022-09-23T18:03:29.915Z,15.10
2022-09-23T18:06:09.406Z,15.00
2022-09-23T18:08:39.976Z,14.80
2022-09-23T18:11:12.808Z,14.80
2022-09-23T18:13:39.730Z,14.80
2022-09-23T18:16:06.997Z,14.70
2022-09-23T18:18:33.938Z,14.70
2022-09-23T18:21:02.752Z,14.70
2022-09-23T18:23:29.864Z,14.60
2022-09-23T18:25:57.017Z,14.60
2022-09-23T18:28:23.842Z,14.60
2022-09-23T18:30:55.450Z,14.60
2022-09-23T18:33:23.690Z,14.50
2022-09-23T18:35:51.867Z,14.50
2022-09-23T18:38:19.102Z,14.50
2022-09-23T18:40:56.350Z,14.50
2022-09-23T18:43:25.866Z,14.40
2022-09-23T18:46:12.263Z,14.40
2022-09-23T18:48:58.365Z,14.30
2022-09-23T18:51:26.406Z,14.40
2022-09-23T18:53:57.625Z,14.20
2022-09-23T18:56:31.073Z,14.20
2022-09-23T18:58:57.919Z,14.10
2022-09-23T19:01:25.426Z,14.00
2022-09-23T19:03:56.597Z,14.00
2022-09-23T19:06:23.955Z,14.10
2022-09-23T19:08:55.012Z,14.00
2022-09-23T19:11:22.849Z,14.00
2022-09-23T19:13:54.961Z,14.00
2022-09-23T19:16:22.766Z,13.90
2022-09-23T19:18:50.445Z,13.80
2022-09-23T19:21:20.592Z,13.80
2022-09-23T19:23:53.370Z,13.80
2022-09-23T19:26:25.860Z,13.70
2022-09-23T19:28:57.452Z,13.70
2022-09-23T19:31:26.664Z,13.60
2022-09-23T19:33:58.749Z,13.60
2022-09-23T19:36:35.271Z,13.50
2022-09-23T19:39:04.729Z,13.50
2022-09-23T19:41:33.429Z,13.50
2022-09-23T19:44:07.510Z,13.40
2022-09-23T19:46:42.838Z,13.30
2022-09-23T19:49:11.106Z,13.30
2022-09-23T19:51:39.218Z,13.30
2022-09-23T19:54:07.884Z,13.30
2022-09-23T19:56:35.671Z,13.20
2022-09-23T19:59:04.692Z,13.20
2022-09-23T20:01:32.143Z,13.20
2022-09-23T20:03:59.495Z,13.10
2022-09-23T20:06:30.255Z,13.00
2022-09-23T20:08:59.582Z,13.00
2022-09-23T20:11:28.538Z,13.00
2022-09-23T20:14:01.108Z,13.00
2022-09-23T20:16:32.193Z,13.00
2022-09-23T20:18:59.989Z,13.00
2022-09-23T20:21:28.181Z,12.90
2022-09-23T20:23:55.418Z,12.90
2022-09-23T20:26:40.824Z,12.80
2022-09-23T20:29:08.983Z,12.80
2022-09-23T20:31:35.892Z,12.90
2022-09-23T20:34:05.617Z,12.90
2022-09-23T20:36:35.079Z,12.90
2022-09-23T20:39:05.362Z,12.90
2022-09-23T20:41:35.802Z,12.90
2022-09-23T20:44:03.594Z,12.90
2022-09-23T20:46:30.553Z,12.80
2022-09-23T20:48:57.407Z,12.80
2022-09-23T20:51:25.451Z,12.70
2022-09-23T20:53:53.051Z,12.70
2022-09-23T20:56:23.377Z,12.70
2022-09-23T20:58:52.551Z,12.60
2022-09-23T21:01:20.105Z,12.60
2022-09-23T21:03:52.378Z,12.60
2022-09-23T21:06:19.775Z,12.50
2022-09-23T21:08:46.967Z,12.40
2022-09-23T21:11:16.520Z,12.40
2022-09-23T21:13:47.900Z,12.40
2022-09-23T21:16:16.104Z,12.30
2022-09-23T21:18:43.814Z,12.30
2022-09-23T21:21:12.171Z,12.30
2022-09-23T21:23:39.955Z,12.30
2022-09-23T21:26:09.490Z,12.20
2022-09-23T21:28:44.286Z,12.20
2022-09-23T21:31:25.973Z,12.20
2022-09-23T21:33:59.127Z,12.20
2022-09-23T21:36:28.186Z,12.20
2022-09-23T21:38:56.073Z,12.20
2022-09-23T21:41:23.676Z,12.20
2022-09-23T21:43:51.180Z,12.20
2022-09-23T21:46:20.276Z,12.20
2022-09-23T21:48:50.208Z,12.10
2022-09-23T21:51:19.928Z,12.00
2022-09-23T21:53:47.137Z,12.00
2022-09-23T21:56:28.443Z,11.90
2022-09-23T21:58:57.140Z,11.80
2022-09-23T22:01:38.406Z,11.80
2022-09-23T22:04:17.772Z,11.80
2022-09-23T22:06:45.096Z,11.80
2022-09-23T22:09:14.946Z,11.80
2022-09-23T22:12:17.267Z,11.70
2022-09-23T22:14:46.196Z,11.70
2022-09-23T22:17:14.494Z,11.60
2022-09-23T22:19:46.449Z,11.60
2022-09-23T22:22:15.649Z,11.50
2022-09-23T22:24:43.134Z,11.40
2022-09-23T22:27:12.952Z,11.50
2022-09-23T22:29:58.428Z,11.50
2022-09-23T22:32:40.720Z,11.40
2022-09-23T22:35:13.780Z,11.40
2022-09-23T22:37:40.503Z,11.30
2022-09-23T22:40:14.387Z,11.30
2022-09-23T22:42:42.372Z,11.20
2022-09-23T22:45:10.597Z,11.20
2022-09-23T22:47:40.364Z,11.20
2022-09-23T22:50:16.197Z,11.10
2022-09-23T22:52:43.307Z,11.10
2022-09-23T22:55:10.887Z,11.10
2022-09-23T22:57:37.610Z,11.10
2022-09-23T23:00:08.399Z,11.20
2022-09-23T23:02:35.209Z,11.10
2022-09-23T23:05:02.619Z,11.20
2022-09-23T23:07:29.367Z,11.20
2022-09-23T23:09:56.091Z,11.20
2022-09-23T23:12:22.853Z,11.20
2022-09-23T23:14:49.901Z,11.10
2022-09-23T23:17:17.213Z,11.20
2022-09-23T23:19:43.992Z,11.20
2022-09-23T23:22:11.062Z,11.20
2022-09-23T23:24:37.947Z,11.10
2022-09-23T23:27:04.794Z,11.10
2022-09-23T23:29:31.545Z,11.10
2022-09-23T23:31:58.329Z,11.10
2022-09-23T23:34:25.278Z,11.00
2022-09-23T23:36:56.000Z,11.00
2022-09-23T23:39:24.916Z,11.00
2022-09-23T23:41:56.094Z,11.10
2022-09-23T23:44:24.643Z,11.10
2022-09-23T23:46:52.160Z,11.10
2022-09-23T23:49:19.507Z,11.10
2022-09-23T23:51:46.463Z,11.10
2022-09-23T23:54:15.151Z,11.10
2022-09-23T23:56:42.043Z,11.00
2022-09-23T23:59:08.825Z,11.00
